Time;durP1;ratioP1;P1;durP2;ratioP2;P2;SDS_P1;SDS_P2;PMS_P1;PMS_P2;Temp;Humidity;BMP_temperature;BMP_pressure;BME280_temperature;BME280_humidity;BME280_pressure;Samples;Min_cycle;Max_cycle;Signal;HPM_P1;HPM_P2
2022/04/03 00:02:16;;;;;;;;;17.25;15.50;;;;;;;;5068525;28;45374;-69
2022/04/03 00:04:41;;;;;;;;;17.50;15.50;;;;;;;;5070254;27;45339;-69
2022/04/03 00:07:06;;;;;;;;;18.75;17.75;;;;;;;;5068519;28;45522;-69
2022/04/03 00:09:31;;;;;;;;;18.75;13.50;;;;;;;;5073736;27;46445;-69
2022/04/03 00:11:57;;;;;;;;;18.00;17.25;;;;;;;;5072827;27;45443;-69
2022/04/03 00:14:22;;;;;;;;;19.25;18.25;;;;;;;;5067930;28;45420;-69
2022/04/03 00:16:47;;;;;;;;;21.00;16.75;;;;;;;;5060810;28;45501;-68
2022/04/03 00:19:12;;;;;;;;;18.00;15.75;;;;;;;;5059544;28;47155;-69
2022/04/03 00:21:38;;;;;;;;;12.75;12.75;;;;;;;;5058653;27;45572;-69
2022/04/03 00:24:04;;;;;;;;;14.25;14.25;;;;;;;;5072606;27;45492;-69
2022/04/03 00:26:29;;;;;;;;;16.75;13.75;;;;;;;;5067524;27;45367;-69
2022/04/03 00:28:54;;;;;;;;;14.50;12.00;;;;;;;;5065337;28;46190;-69
2022/04/03 00:31:20;;;;;;;;;19.00;16.50;;;;;;;;5068652;27;45511;-70
2022/04/03 00:33:45;;;;;;;;;20.50;19.25;;;;;;;;5073191;27;45401;-66
2022/04/03 00:36:10;;;;;;;;;19.25;18.25;;;;;;;;5074377;28;45432;-69
2022/04/03 00:38:36;;;;;;;;;20.00;17.25;;;;;;;;5073772;27;46016;-69
2022/04/03 00:41:02;;;;;;;;;15.00;13.25;;;;;;;;5069601;27;45604;-69
2022/04/03 00:43:27;;;;;;;;;16.50;15.00;;;;;;;;5073133;27;45370;-69
2022/04/03 00:45:53;;;;;;;;;13.00;11.50;;;;;;;;5073224;27;45600;-69
2022/04/03 00:48:18;;;;;;;;;15.75;15.75;;;;;;;;5060258;27;46051;-69
2022/04/03 00:50:44;;;;;;;;;15.50;15.50;;;;;;;;5058808;28;45541;-68
2022/04/03 00:53:09;;;;;;;;;17.50;14.75;;;;;;;;5065204;28;45444;-68
2022/04/03 00:55:34;;;;;;;;;14.75;12.50;;;;;;;;5073588;27;45549;-69
2022/04/03 00:58:00;;;;;;;;;15.75;14.25;;;;;;;;5073484;27;45535;-67
2022/04/03 01:00:26;;;;;;;;;15.00;11.75;;;;;;;;5072339;27;45484;-68
2022/04/03 01:02:51;;;;;;;;;16.25;15.00;;;;;;;;5072648;27;45281;-67
2022/04/03 01:05:16;;;;;;;;;16.25;15.00;;;;;;;;5073411;27;45355;-68
2022/04/03 01:07:43;;;;;;;;;16.75;16.75;;;;;;;;5073071;28;46570;-68
2022/04/03 01:10:08;;;;;;;;;18.25;14.00;;;;;;;;5070337;28;45391;-69
2022/04/03 01:12:38;;;;;;;;;18.75;17.25;;;;;;;;5072561;27;45385;-67
2022/04/03 01:15:03;;;;;;;;;17.75;16.50;;;;;;;;5071831;28;45224;-68
2022/04/03 01:17:28;;;;;;;;;16.00;16.00;;;;;;;;5069591;27;47139;-68
2022/04/03 01:19:54;;;;;;;;;12.25;12.25;;;;;;;;5065559;27;45702;-68
2022/04/03 01:22:19;;;;;;;;;15.50;15.50;;;;;;;;5073122;28;45602;-69
2022/04/03 01:24:44;;;;;;;;;16.75;14.75;;;;;;;;5069015;27;45474;-68
2022/04/03 01:27:10;;;;;;;;;18.25;15.75;;;;;;;;5072731;27;46365;-68
2022/04/03 01:29:36;;;;;;;;;16.75;15.50;;;;;;;;5072885;27;45328;-68
2022/04/03 01:32:02;;;;;;;;;16.75;16.25;;;;;;;;5073297;27;45501;-68
2022/04/03 01:34:27;;;;;;;;;21.00;16.50;;;;;;;;5073185;27;45470;-68
2022/04/03 01:36:52;;;;;;;;;17.25;17.00;;;;;;;;5072855;27;46563;-68
2022/04/03 01:39:18;;;;;;;;;17.75;17.50;;;;;;;;5074168;27;45474;-68
2022/04/03 01:41:44;;;;;;;;;16.25;15.25;;;;;;;;5073082;27;45322;-68
2022/04/03 01:44:10;;;;;;;;;18.00;16.50;;;;;;;;5073042;27;45424;-69
2022/04/03 01:46:36;;;;;;;;;17.00;15.75;;;;;;;;5072099;27;47072;-69
2022/04/03 01:49:01;;;;;;;;;17.50;17.50;;;;;;;;5073387;28;45335;-69
2022/04/03 01:51:26;;;;;;;;;11.50;10.50;;;;;;;;5074036;27;45483;-69
2022/04/03 01:53:51;;;;;;;;;18.50;16.00;;;;;;;;5071722;28;45384;-69
2022/04/03 01:56:17;;;;;;;;;18.50;14.75;;;;;;;;5072567;28;45463;-68
2022/04/03 01:58:42;;;;;;;;;11.50;11.50;;;;;;;;5073445;28;45311;-69
2022/04/03 02:01:07;;;;;;;;;14.25;13.00;;;;;;;;5076167;27;45444;-69
2022/04/03 02:03:33;;;;;;;;;14.50;14.50;;;;;;;;5076768;27;45448;-69
2022/04/03 02:05:58;;;;;;;;;15.00;15.00;;;;;;;;5069291;28;45307;-69
2022/04/03 02:08:25;;;;;;;;;14.75;13.00;;;;;;;;5072456;28;45346;-70
2022/04/03 02:10:50;;;;;;;;;21.00;16.50;;;;;;;;5074896;27;45247;-69
2022/04/03 02:13:15;;;;;;;;;19.25;16.50;;;;;;;;5064682;28;45374;-68
2022/04/03 02:15:40;;;;;;;;;15.25;14.50;;;;;;;;5075981;27;45232;-68
2022/04/03 02:18:06;;;;;;;;;15.50;13.50;;;;;;;;5075372;28;45335;-67
2022/04/03 02:20:34;;;;;;;;;16.75;16.75;;;;;;;;5074680;27;45865;-69
2022/04/03 02:22:59;;;;;;;;;19.00;15.25;;;;;;;;5075749;28;45502;-69
2022/04/03 02:25:25;;;;;;;;;17.50;15.00;;;;;;;;5075506;28;46252;-68
2022/04/03 02:27:52;;;;;;;;;13.25;13.25;;;;;;;;5075919;27;45358;-68
2022/04/03 02:30:17;;;;;;;;;15.25;14.25;;;;;;;;5076400;27;45320;-68
2022/04/03 02:32:42;;;;;;;;;20.25;15.00;;;;;;;;5075856;27;45505;-68
2022/04/03 02:35:10;;;;;;;;;17.50;14.75;;;;;;;;5075057;28;46274;-68
2022/04/03 02:37:36;;;;;;;;;15.50;15.50;;;;;;;;5076184;27;45342;-68
2022/04/03 02:40:03;;;;;;;;;14.50;13.25;;;;;;;;5074151;27;45459;-68
2022/04/03 02:42:28;;;;;;;;;16.75;16.75;;;;;;;;5076490;27;45373;-69
2022/04/03 02:44:53;;;;;;;;;12.00;12.00;;;;;;;;5063921;28;45366;-68
2022/04/03 02:47:19;;;;;;;;;12.75;11.50;;;;;;;;5068581;27;45499;-70
2022/04/03 02:49:44;;;;;;;;;14.50;12.75;;;;;;;;5067948;27;45440;-69
2022/04/03 02:52:09;;;;;;;;;16.50;15.25;;;;;;;;5070884;28;45595;-70
2022/04/03 02:54:35;;;;;;;;;13.75;12.00;;;;;;;;5070877;27;46343;-70
2022/04/03 02:57:00;;;;;;;;;16.00;16.00;;;;;;;;5076342;28;45354;-70
2022/04/03 02:59:25;;;;;;;;;14.75;11.75;;;;;;;;5075394;27;45330;-70
2022/04/03 03:01:50;;;;;;;;;11.00;11.00;;;;;;;;5075938;28;47225;-71
2022/04/03 03:04:15;;;;;;;;;16.75;13.75;;;;;;;;5076098;28;45375;-69
2022/04/03 03:06:41;;;;;;;;;12.00;10.50;;;;;;;;5071860;27;45355;-69
2022/04/03 03:09:06;;;;;;;;;17.25;15.25;;;;;;;;5075858;28;45395;-69
2022/04/03 03:11:31;;;;;;;;;16.00;15.25;;;;;;;;5075338;28;45545;-71
2022/04/03 03:13:56;;;;;;;;;16.25;15.00;;;;;;;;5075405;28;47258;-69
2022/04/03 03:16:21;;;;;;;;;13.00;11.75;;;;;;;;5075636;28;45470;-70
2022/04/03 03:18:47;;;;;;;;;15.25;13.50;;;;;;;;5075765;27;45339;-70
2022/04/03 03:21:12;;;;;;;;;14.50;14.00;;;;;;;;5074500;28;45524;-69
2022/04/03 03:23:40;;;;;;;;;15.00;13.00;;;;;;;;5075355;28;46336;-69
2022/04/03 03:26:05;;;;;;;;;15.50;13.50;;;;;;;;5075058;27;45239;-68
2022/04/03 03:28:31;;;;;;;;;15.00;12.75;;;;;;;;5074774;28;45196;-69
2022/04/03 03:30:57;;;;;;;;;11.75;11.75;;;;;;;;5059309;28;45307;-69
2022/04/03 03:33:22;;;;;;;;;15.25;12.75;;;;;;;;5076194;27;45898;-69
2022/04/03 03:35:47;;;;;;;;;14.25;11.25;;;;;;;;5075135;28;45443;-69
2022/04/03 03:38:12;;;;;;;;;15.25;11.50;;;;;;;;5075508;28;45383;-68
2022/04/03 03:40:39;;;;;;;;;11.50;11.50;;;;;;;;5075372;28;45374;-69
2022/04/03 03:43:04;;;;;;;;;12.50;11.25;;;;;;;;5075048;28;47272;-68
2022/04/03 03:45:29;;;;;;;;;14.50;14.50;;;;;;;;5059522;27;45467;-69
2022/04/03 03:47:55;;;;;;;;;16.00;14.50;;;;;;;;5075761;28;45522;-70
2022/04/03 03:50:20;;;;;;;;;16.50;15.25;;;;;;;;5075115;28;45300;-69
2022/04/03 03:52:45;;;;;;;;;15.50;15.25;;;;;;;;5075047;28;46421;-69
2022/04/03 03:55:10;;;;;;;;;12.00;11.00;;;;;;;;5075052;28;45437;-70
2022/04/03 03:57:36;;;;;;;;;12.75;12.75;;;;;;;;5075051;28;45334;-70
2022/04/03 04:00:02;;;;;;;;;16.00;14.75;;;;;;;;5075825;28;45285;-70
2022/04/03 04:02:27;;;;;;;;;16.00;13.75;;;;;;;;5075007;27;47153;-69
2022/04/03 04:04:52;;;;;;;;;15.75;15.75;;;;;;;;5074985;28;45515;-69
2022/04/03 04:07:17;;;;;;;;;13.50;13.50;;;;;;;;5073928;28;45366;-69
2022/04/03 04:09:42;;;;;;;;;17.00;15.25;;;;;;;;5058295;28;45283;-70
2022/04/03 04:12:11;;;;;;;;;14.75;13.25;;;;;;;;5075002;28;47144;-69
2022/04/03 04:14:38;;;;;;;;;15.25;11.00;;;;;;;;5074887;28;45463;-70
2022/04/03 04:17:03;;;;;;;;;15.00;13.00;;;;;;;;5074996;27;45477;-69
2022/04/03 04:19:29;;;;;;;;;14.50;11.75;;;;;;;;5074809;27;45529;-70
2022/04/03 04:21:54;;;;;;;;;12.50;10.00;;;;;;;;5074373;28;47101;-69
2022/04/03 04:24:19;;;;;;;;;15.25;15.25;;;;;;;;5074905;28;45455;-69
2022/04/03 04:26:45;;;;;;;;;15.75;11.75;;;;;;;;5074387;28;45527;-69
2022/04/03 04:29:11;;;;;;;;;13.75;12.00;;;;;;;;5074954;28;45581;-70
2022/04/03 04:31:36;;;;;;;;;11.50;11.50;;;;;;;;5071909;28;46488;-69
2022/04/03 04:34:03;;;;;;;;;14.00;14.00;;;;;;;;5070497;28;45473;-69
2022/04/03 04:36:29;;;;;;;;;14.00;11.25;;;;;;;;5075216;27;45492;-69
2022/04/03 04:38:54;;;;;;;;;9.00;9.00;;;;;;;;5063020;28;45455;-70
2022/04/03 04:41:20;;;;;;;;;14.00;10.50;;;;;;;;5069638;28;45963;-69
2022/04/03 04:43:45;;;;;;;;;14.00;12.75;;;;;;;;5071972;28;45474;-69
2022/04/03 04:46:10;;;;;;;;;14.50;11.75;;;;;;;;5060400;28;45287;-69
2022/04/03 04:48:35;;;;;;;;;14.25;12.00;;;;;;;;5058403;28;45281;-70
2022/04/03 04:51:01;;;;;;;;;15.75;13.75;;;;;;;;5074520;28;46091;-70
2022/04/03 04:53:26;;;;;;;;;13.00;11.25;;;;;;;;5074182;28;45264;-69
2022/04/03 04:55:52;;;;;;;;;11.50;11.25;;;;;;;;5074065;28;45541;-69
2022/04/03 04:58:17;;;;;;;;;15.50;13.00;;;;;;;;5074179;28;45427;-69
2022/04/03 05:00:42;;;;;;;;;10.25;8.25;;;;;;;;5074177;27;46936;-69
2022/04/03 05:03:07;;;;;;;;;12.50;9.00;;;;;;;;5074663;28;45455;-69
2022/04/03 05:05:33;;;;;;;;;15.25;12.25;;;;;;;;5073009;28;45450;-69
2022/04/03 05:07:58;;;;;;;;;10.25;9.00;;;;;;;;5074630;28;45301;-69
2022/04/03 05:10:25;;;;;;;;;9.00;9.00;;;;;;;;5073828;27;45475;-69
2022/04/03 05:12:50;;;;;;;;;12.50;10.75;;;;;;;;5073723;27;45448;-68
2022/04/03 05:15:17;;;;;;;;;12.50;11.00;;;;;;;;5074780;27;45642;-68
2022/04/03 05:17:43;;;;;;;;;13.00;13.00;;;;;;;;5073520;27;45425;-70
2022/04/03 05:20:17;;;;;;;;;14.50;12.25;;;;;;;;5073040;27;46352;-68
2022/04/03 05:22:43;;;;;;;;;13.75;13.75;;;;;;;;5073435;27;45307;-68
2022/04/03 05:25:11;;;;;;;;;12.50;9.25;;;;;;;;5073148;27;45308;-69
2022/04/03 05:27:36;;;;;;;;;16.25;13.25;;;;;;;;5056838;27;45291;-68
2022/04/03 05:30:03;;;;;;;;;13.75;10.50;;;;;;;;5074218;27;45662;-68
2022/04/03 05:32:29;;;;;;;;;9.50;9.00;;;;;;;;5073699;28;45450;-70
2022/04/03 05:34:55;;;;;;;;;12.00;11.75;;;;;;;;5076113;27;45387;-68
2022/04/03 05:37:20;;;;;;;;;13.25;12.00;;;;;;;;5077788;28;45472;-69
2022/04/03 05:39:46;;;;;;;;;12.75;12.75;;;;;;;;5076917;27;45453;-69
2022/04/03 05:42:11;;;;;;;;;17.00;14.00;;;;;;;;5078089;27;45285;-69
2022/04/03 05:44:36;;;;;;;;;13.00;12.50;;;;;;;;5067511;27;45583;-70
2022/04/03 05:47:02;;;;;;;;;13.00;12.00;;;;;;;;5070537;28;45428;-69
2022/04/03 05:49:27;;;;;;;;;12.75;12.00;;;;;;;;5076982;28;46952;-70
2022/04/03 05:51:53;;;;;;;;;13.50;9.75;;;;;;;;5075996;28;45415;-69
2022/04/03 05:54:18;;;;;;;;;17.50;16.00;;;;;;;;5077514;27;45317;-69
2022/04/03 05:56:44;;;;;;;;;13.00;13.00;;;;;;;;5076965;28;45383;-68
2022/04/03 05:59:09;;;;;;;;;15.75;13.00;;;;;;;;5076304;28;46231;-69
2022/04/03 06:01:34;;;;;;;;;14.25;13.50;;;;;;;;5076166;27;45462;-70
2022/04/03 06:04:00;;;;;;;;;17.00;16.00;;;;;;;;5076940;28;45334;-69
2022/04/03 06:06:25;;;;;;;;;8.50;7.50;;;;;;;;5061704;28;45530;-70
2022/04/03 06:08:50;;;;;;;;;12.25;11.00;;;;;;;;5075937;28;46056;-69
2022/04/03 06:11:15;;;;;;;;;19.75;18.25;;;;;;;;5076740;27;45404;-69
2022/04/03 06:13:40;;;;;;;;;14.50;13.50;;;;;;;;5076585;28;45458;-70
2022/04/03 06:16:06;;;;;;;;;13.00;12.25;;;;;;;;5076768;28;45411;-69
2022/04/03 06:18:31;;;;;;;;;9.50;9.50;;;;;;;;5077246;27;45603;-69
2022/04/03 06:20:56;;;;;;;;;12.00;9.00;;;;;;;;5076701;27;45568;-69
2022/04/03 06:23:22;;;;;;;;;15.25;14.00;;;;;;;;5076373;28;45307;-68
2022/04/03 06:25:51;;;;;;;;;15.75;12.75;;;;;;;;5076153;27;47968;-69
2022/04/03 06:28:17;;;;;;;;;12.75;12.75;;;;;;;;5076257;27;46042;-69
2022/04/03 06:30:42;;;;;;;;;12.50;12.50;;;;;;;;5076234;27;45419;-69
2022/04/03 06:33:07;;;;;;;;;12.00;9.75;;;;;;;;5076807;28;45449;-69
2022/04/03 06:35:32;;;;;;;;;14.00;13.75;;;;;;;;5076148;28;45469;-69
2022/04/03 06:37:58;;;;;;;;;17.75;14.50;;;;;;;;5076021;28;46147;-69
2022/04/03 06:40:23;;;;;;;;;14.00;13.00;;;;;;;;5075918;28;45376;-69
2022/04/03 06:42:49;;;;;;;;;14.75;13.75;;;;;;;;5074360;28;45536;-69
2022/04/03 06:45:15;;;;;;;;;13.75;13.50;;;;;;;;5061794;27;45477;-69
2022/04/03 06:47:41;;;;;;;;;15.50;13.75;;;;;;;;5074360;28;46203;-69
2022/04/03 06:50:06;;;;;;;;;13.25;11.75;;;;;;;;5076180;28;45306;-69
2022/04/03 06:52:31;;;;;;;;;12.75;9.50;;;;;;;;5076051;28;45346;-69
2022/04/03 06:54:58;;;;;;;;;16.50;14.00;;;;;;;;5076403;27;45556;-69
2022/04/03 06:57:23;;;;;;;;;14.00;11.75;;;;;;;;5076946;27;46364;-69
2022/04/03 06:59:48;;;;;;;;;11.75;10.25;;;;;;;;5075704;28;45433;-69
2022/04/03 07:02:13;;;;;;;;;12.75;12.75;;;;;;;;5075481;28;45515;-69
2022/04/03 07:04:39;;;;;;;;;12.00;10.00;;;;;;;;5065538;28;45335;-69
2022/04/03 07:07:04;;;;;;;;;12.50;12.50;;;;;;;;5075216;28;46347;-69
2022/04/03 07:09:29;;;;;;;;;13.00;12.75;;;;;;;;5075975;27;45490;-69
2022/04/03 07:11:55;;;;;;;;;13.00;10.00;;;;;;;;5076223;28;45420;-70
2022/04/03 07:14:20;;;;;;;;;11.75;11.75;;;;;;;;5075381;28;45378;-68
2022/04/03 07:16:45;;;;;;;;;10.75;10.00;;;;;;;;5066678;28;47232;-69
2022/04/03 07:19:11;;;;;;;;;13.50;11.25;;;;;;;;5074358;28;45382;-69
2022/04/03 07:21:36;;;;;;;;;13.00;10.75;;;;;;;;5057780;27;45465;-69
2022/04/03 07:24:01;;;;;;;;;11.50;11.50;;;;;;;;5074420;28;45631;-69
2022/04/03 07:26:27;;;;;;;;;14.00;11.75;;;;;;;;5074932;28;47202;-69
2022/04/03 07:28:52;;;;;;;;;13.00;11.25;;;;;;;;5074902;28;48076;-72
2022/04/03 07:31:17;;;;;;;;;11.00;9.25;;;;;;;;5073588;27;45512;-69
2022/04/03 07:33:42;;;;;;;;;15.75;13.00;;;;;;;;5074247;27;45355;-70
2022/04/03 07:36:07;;;;;;;;;13.25;11.25;;;;;;;;5062603;28;45995;-69
2022/04/03 07:38:33;;;;;;;;;17.50;13.00;;;;;;;;5067948;28;45433;-68
2022/04/03 07:40:58;;;;;;;;;13.75;11.25;;;;;;;;5066015;28;45524;-67
2022/04/03 07:43:26;;;;;;;;;11.25;11.00;;;;;;;;5074236;28;45536;-68
2022/04/03 07:45:52;;;;;;;;;16.50;13.00;;;;;;;;5064273;27;47750;-67
2022/04/03 07:48:18;;;;;;;;;13.25;11.50;;;;;;;;5074440;27;45734;-69
2022/04/03 07:50:44;;;;;;;;;10.75;10.75;;;;;;;;5073832;28;45319;-67
2022/04/03 07:53:10;;;;;;;;;14.75;11.00;;;;;;;;5074187;27;45559;-67
2022/04/03 07:55:35;;;;;;;;;8.75;7.50;;;;;;;;5073394;28;46274;-69
2022/04/03 07:58:00;;;;;;;;;10.00;10.00;;;;;;;;5065899;28;45668;-69
2022/04/03 08:00:26;;;;;;;;;11.50;11.00;;;;;;;;5060865;28;46087;-69
2022/04/03 08:02:52;;;;;;;;;15.75;11.75;;;;;;;;5070612;27;45525;-71
2022/04/03 08:05:17;;;;;;;;;18.25;16.00;;;;;;;;5067080;27;46200;-65
2022/04/03 08:07:46;;;;;;;;;12.50;9.00;;;;;;;;5067658;27;45826;-68
2022/04/03 08:10:12;;;;;;;;;9.75;9.25;;;;;;;;5082236;27;45331;-68
2022/04/03 08:12:38;;;;;;;;;11.75;9.00;;;;;;;;5073638;27;45468;-69
2022/04/03 08:15:04;;;;;;;;;11.50;10.50;;;;;;;;5072797;27;46166;-70
2022/04/03 08:17:34;;;;;;;;;9.50;8.75;;;;;;;;5070926;27;45452;-69
2022/04/03 08:19:59;;;;;;;;;8.00;7.00;;;;;;;;5064382;27;46725;-69
2022/04/03 08:22:24;;;;;;;;;12.00;11.00;;;;;;;;5069081;27;45408;-68
2022/04/03 08:24:50;;;;;;;;;10.00;10.00;;;;;;;;5070176;27;47112;-68
2022/04/03 08:27:16;;;;;;;;;11.50;11.00;;;;;;;;5072483;27;45499;-68
2022/04/03 08:29:41;;;;;;;;;8.75;7.00;;;;;;;;5074954;27;45511;-68
2022/04/03 08:32:07;;;;;;;;;13.00;12.50;;;;;;;;5078168;27;45459;-69
2022/04/03 08:34:32;;;;;;;;;9.00;7.50;;;;;;;;5068659;27;50381;-69
2022/04/03 08:36:57;;;;;;;;;15.50;11.25;;;;;;;;5072539;27;45655;-69
2022/04/03 08:39:23;;;;;;;;;12.00;9.00;;;;;;;;5073196;27;45438;-69
2022/04/03 08:41:48;;;;;;;;;8.75;7.25;;;;;;;;5070996;27;45684;-68
2022/04/03 08:44:14;;;;;;;;;9.50;7.25;;;;;;;;5067163;28;46626;-68
2022/04/03 08:46:41;;;;;;;;;5.00;5.00;;;;;;;;5071532;27;45343;-68
2022/04/03 08:49:07;;;;;;;;;8.00;7.75;;;;;;;;5056576;27;45475;-68
2022/04/03 08:51:36;;;;;;;;;9.50;8.50;;;;;;;;5064258;28;45630;-68
2022/04/03 08:54:01;;;;;;;;;7.25;7.25;;;;;;;;5070198;28;47265;-68
2022/04/03 08:56:26;;;;;;;;;8.00;5.75;;;;;;;;5071682;27;45450;-70
2022/04/03 08:58:51;;;;;;;;;8.50;8.00;;;;;;;;5071377;28;45400;-70
2022/04/03 09:01:17;;;;;;;;;9.75;6.25;;;;;;;;5068551;27;45484;-78
2022/04/03 09:03:43;;;;;;;;;6.75;5.75;;;;;;;;5060091;27;46252;-81
2022/04/03 09:06:27;;;;;;;;;7.50;7.50;;;;;;;;5073336;27;45399;-80
2022/04/03 09:08:52;;;;;;;;;7.00;6.00;;;;;;;;5074384;27;45617;-80
2022/04/03 09:11:18;;;;;;;;;5.75;5.75;;;;;;;;5073957;27;45487;-78
2022/04/03 09:13:44;;;;;;;;;5.00;4.00;;;;;;;;5071764;27;45967;-76
2022/04/03 09:16:10;;;;;;;;;5.50;4.50;;;;;;;;5069166;27;45524;-78
2022/04/03 09:18:48;;;;;;;;;6.00;4.00;;;;;;;;5073401;27;45382;-82
2022/04/03 09:21:18;;;;;;;;;3.50;2.75;;;;;;;;5075128;28;45493;-85
2022/04/03 09:23:57;;;;;;;;;7.00;6.00;;;;;;;;5078174;27;45466;-83
2022/04/03 09:26:22;;;;;;;;;2.00;0.50;;;;;;;;5074304;27;45387;-81
2022/04/03 09:28:47;;;;;;;;;3.75;3.75;;;;;;;;5070338;28;45481;-77
2022/04/03 09:31:25;;;;;;;;;3.25;3.25;;;;;;;;5060511;28;45550;-86
2022/04/03 09:34:01;;;;;;;;;9.00;8.25;;;;;;;;5057015;28;45845;-78
2022/04/03 09:36:29;;;;;;;;;3.25;3.25;;;;;;;;5069164;28;45494;-78
2022/04/03 09:39:03;;;;;;;;;3.00;2.50;;;;;;;;5059054;28;45743;-78
2022/04/03 09:41:28;;;;;;;;;4.50;3.50;;;;;;;;5069302;28;46038;-78
2022/04/03 09:43:53;;;;;;;;;2.00;1.75;;;;;;;;5065928;27;46212;-78
2022/04/03 09:46:19;;;;;;;;;3.00;3.00;;;;;;;;5061538;28;45332;-78
2022/04/03 09:48:44;;;;;;;;;3.00;3.00;;;;;;;;5075037;28;45560;-77
2022/04/03 09:51:10;;;;;;;;;2.00;2.00;;;;;;;;5060478;27;45438;-79
2022/04/03 09:53:49;;;;;;;;;1.25;1.25;;;;;;;;5066306;28;46341;-78
2022/04/03 09:56:37;;;;;;;;;3.00;3.00;;;;;;;;5069180;27;45524;-80
2022/04/03 09:59:03;;;;;;;;;2.50;2.50;;;;;;;;5067947;27;45867;-79
2022/04/03 10:01:35;;;;;;;;;3.00;3.00;;;;;;;;5059779;28;45354;-79
2022/04/03 10:04:01;;;;;;;;;10.25;10.00;;;;;;;;5057592;28;46658;-77
2022/04/03 10:06:28;;;;;;;;;3.00;1.25;;;;;;;;5069298;27;45452;-78
2022/04/03 10:08:53;;;;;;;;;1.00;0.50;;;;;;;;5072537;28;45474;-78
2022/04/03 10:11:19;;;;;;;;;1.50;1.50;;;;;;;;5065524;27;45428;-75
2022/04/03 10:13:45;;;;;;;;;1.75;1.75;;;;;;;;5062404;28;45416;-77
2022/04/03 10:16:11;;;;;;;;;2.25;2.00;;;;;;;;5072412;27;45371;-78
2022/04/03 10:18:37;;;;;;;;;2.75;1.75;;;;;;;;5061634;27;45356;-78
2022/04/03 10:21:04;;;;;;;;;2.50;2.50;;;;;;;;5074347;27;45303;-78
2022/04/03 10:23:30;;;;;;;;;1.00;1.00;;;;;;;;5065851;28;46601;-77
2022/04/03 10:25:56;;;;;;;;;2.00;2.00;;;;;;;;5067572;28;45834;-78
2022/04/03 10:28:22;;;;;;;;;3.00;2.00;;;;;;;;5075580;27;45444;-78
2022/04/03 10:30:57;;;;;;;;;2.75;2.00;;;;;;;;5068140;27;45647;-79
2022/04/03 10:33:24;;;;;;;;;2.50;1.75;;;;;;;;5074316;27;46201;-78
2022/04/03 10:36:01;;;;;;;;;2.00;2.00;;;;;;;;5072566;28;45514;-79
2022/04/03 10:38:33;;;;;;;;;1.75;1.75;;;;;;;;5074343;28;45570;-78
2022/04/03 10:40:59;;;;;;;;;3.00;2.25;;;;;;;;5070885;27;45275;-79
2022/04/03 10:43:29;;;;;;;;;3.00;3.00;;;;;;;;5064294;28;46190;-79
2022/04/03 10:45:54;;;;;;;;;6.00;2.50;;;;;;;;5060153;27;45420;-78
2022/04/03 10:48:20;;;;;;;;;3.00;2.00;;;;;;;;5066464;27;45366;-76
2022/04/03 10:50:55;;;;;;;;;3.00;3.00;;;;;;;;5072099;28;45573;-80
2022/04/03 10:53:24;;;;;;;;;2.00;2.00;;;;;;;;5070407;28;46446;-81
2022/04/03 10:55:54;;;;;;;;;2.25;2.25;;;;;;;;5073313;28;45408;-78
2022/04/03 10:58:20;;;;;;;;;2.00;2.00;;;;;;;;5063013;28;45418;-79
2022/04/03 11:00:46;;;;;;;;;2.75;2.75;;;;;;;;5075860;27;45565;-80
2022/04/03 11:03:14;;;;;;;;;2.75;2.75;;;;;;;;5070396;27;45572;-81
2022/04/03 11:05:41;;;;;;;;;3.00;3.00;;;;;;;;5074372;27;45407;-81
2022/04/03 11:08:06;;;;;;;;;3.00;3.00;;;;;;;;5081607;27;45281;-80
2022/04/03 11:10:52;;;;;;;;;2.00;2.00;;;;;;;;5080426;28;45314;-78
2022/04/03 11:13:21;;;;;;;;;3.25;2.75;;;;;;;;5086140;27;45210;-80
2022/04/03 11:16:05;;;;;;;;;2.00;2.00;;;;;;;;5084696;28;45296;-79
2022/04/03 11:18:39;;;;;;;;;4.00;2.00;;;;;;;;5078349;28;45379;-79
2022/04/03 11:21:24;;;;;;;;;4.00;4.00;;;;;;;;5075300;28;45518;-81
2022/04/03 11:23:51;;;;;;;;;4.33;4.33;;;;;;;;5071256;27;46038;-80
2022/04/03 11:26:17;;;;;;;;;3.50;2.50;;;;;;;;5071479;27;45529;-80
2022/04/03 11:28:43;;;;;;;;;2.50;2.50;;;;;;;;5074301;28;45352;-80
2022/04/03 11:31:09;;;;;;;;;2.67;2.67;;;;;;;;5059620;28;45478;-80
2022/04/03 11:33:35;;;;;;;;;2.67;2.67;;;;;;;;5073947;27;45660;-81
2022/04/03 11:36:13;;;;;;;;;8.00;5.67;;;;;;;;5068114;27;45399;-79
2022/04/03 11:38:39;;;;;;;;;3.00;3.00;;;;;;;;5065198;27;45237;-80
2022/04/03 11:41:05;;;;;;;;;3.00;3.00;;;;;;;;5063083;28;45551;-79
2022/04/03 11:43:31;;;;;;;;;3.33;2.67;;;;;;;;5064826;28;46438;-79
2022/04/03 11:46:00;;;;;;;;;2.00;2.00;;;;;;;;5061615;28;45426;-78
2022/04/03 11:48:45;;;;;;;;;1.33;1.33;;;;;;;;5074653;28;45249;-77
2022/04/03 11:51:12;;;;;;;;;286.20;237.80;;;;;;;;5074598;28;45588;-79
2022/04/03 11:53:41;;;;;;;;;4.00;4.00;;;;;;;;5075301;27;47150;-84
2022/04/03 11:56:16;;;;;;;;;2.33;1.67;;;;;;;;5078822;27;45438;-82
2022/04/03 11:58:49;;;;;;;;;5.00;3.00;;;;;;;;5073460;27;45482;-82
2022/04/03 12:01:24;;;;;;;;;1.25;1.25;;;;;;;;5081468;27;45501;-82
2022/04/03 12:04:00;;;;;;;;;2.00;2.00;;;;;;;;5072494;27;46404;-84
2022/04/03 12:06:26;;;;;;;;;1.00;1.00;;;;;;;;5061674;27;45433;-84
2022/04/03 12:08:52;;;;;;;;;1.25;1.25;;;;;;;;5069135;28;45391;-81
2022/04/03 12:11:24;;;;;;;;;3.50;3.00;;;;;;;;5073615;28;45292;-84
2022/04/03 12:13:50;;;;;;;;;4.33;4.33;;;;;;;;5075823;28;46321;-83
2022/04/03 12:16:19;;;;;;;;;2.00;1.67;;;;;;;;5064707;28;45441;-81
2022/04/03 12:18:55;;;;;;;;;3.00;3.00;;;;;;;;5073591;27;45598;-79
2022/04/03 12:21:21;;;;;;;;;3.33;3.00;;;;;;;;5062913;27;45651;-80
2022/04/03 12:24:08;;;;;;;;;3.00;2.00;;;;;;;;5057928;28;45715;-86
2022/04/03 12:26:34;;;;;;;;;7.67;3.33;;;;;;;;5069275;28;45413;-81
2022/04/03 12:28:59;;;;;;;;;5.67;4.00;;;;;;;;5070311;28;45382;-83
2022/04/03 12:31:28;;;;;;;;;2.00;2.00;;;;;;;;5065455;28;45503;-84
2022/04/03 12:34:07;;;;;;;;;3.33;3.33;;;;;;;;5077232;27;46427;-83
2022/04/03 12:36:38;;;;;;;;;3.67;2.67;;;;;;;;5075972;28;45351;-82
2022/04/03 12:39:04;;;;;;;;;2.67;2.67;;;;;;;;5063814;28;45305;-83
2022/04/03 12:41:29;;;;;;;;;3.00;2.33;;;;;;;;5073303;28;45530;-83
2022/04/03 12:43:58;;;;;;;;;1.75;1.75;;;;;;;;5074733;28;45428;-83
2022/04/03 12:46:25;;;;;;;;;4.50;4.50;;;;;;;;5076677;27;45551;-82
2022/04/03 12:48:51;;;;;;;;;3.00;3.00;;;;;;;;5076100;27;45391;-83
2022/04/03 12:51:16;;;;;;;;;3.50;3.00;;;;;;;;5076128;27;45223;-84
2022/04/03 12:53:57;;;;;;;;;3.50;3.50;;;;;;;;5075070;28;45363;-84
2022/04/03 12:58:24;;;;;;;;;3.00;3.00;;;;;;;;5068896;27;45425;-83
2022/04/03 12:59:21;;;;;;;;;2.50;2.50;;;;;;;;5063399;28;45645;-83
2022/04/03 13:01:49;;;;;;;;;2.75;2.75;;;;;;;;5063206;28;45459;-83
2022/04/03 13:04:28;;;;;;;;;3.00;3.00;;;;;;;;5058966;28;48583;-83
2022/04/03 13:06:53;;;;;;;;;5.00;5.00;;;;;;;;5074686;27;45294;-83
2022/04/03 13:09:18;;;;;;;;;2.00;2.00;;;;;;;;5074259;27;45229;-84
2022/04/03 13:11:48;;;;;;;;;2.50;2.50;;;;;;;;5074883;28;45439;-83
2022/04/03 13:14:13;;;;;;;;;4.00;4.00;;;;;;;;5068422;27;45486;-83
2022/04/03 13:16:39;;;;;;;;;4.75;4.50;;;;;;;;5062757;28;45386;-83
2022/04/03 13:19:04;;;;;;;;;4.75;4.00;;;;;;;;5058658;28;45391;-83
2022/04/03 13:21:33;;;;;;;;;4.50;3.50;;;;;;;;5074617;27;45267;-83
2022/04/03 13:23:58;;;;;;;;;6.00;4.50;;;;;;;;5073645;28;46451;-83
2022/04/03 13:26:24;;;;;;;;;6.25;4.75;;;;;;;;5066590;28;45813;-83
2022/04/03 13:28:49;;;;;;;;;3.33;3.33;;;;;;;;5062001;28;45552;-83
2022/04/03 13:31:14;;;;;;;;;2.33;2.00;;;;;;;;5060998;28;45263;-84
2022/04/03 13:33:39;;;;;;;;;3.00;3.00;;;;;;;;5056074;28;47522;-84
2022/04/03 13:36:05;;;;;;;;;4.50;4.50;;;;;;;;5073474;28;45424;-84
2022/04/03 13:38:30;;;;;;;;;3.00;3.00;;;;;;;;5072640;28;45346;-83
2022/04/03 13:40:55;;;;;;;;;5.25;5.25;;;;;;;;5076401;28;45482;-82
2022/04/03 13:43:21;;;;;;;;;3.00;3.00;;;;;;;;5075778;28;46126;-83
2022/04/03 13:46:00;;;;;;;;;5.00;4.00;;;;;;;;5073388;27;45417;-83
2022/04/03 13:48:34;;;;;;;;;4.00;4.00;;;;;;;;5070228;28;45340;-84
2022/04/03 13:50:59;;;;;;;;;8.50;6.00;;;;;;;;5074919;28;45267;-82
2022/04/03 13:53:26;;;;;;;;;3.25;3.25;;;;;;;;5066884;27;45452;-83
2022/04/03 13:55:52;;;;;;;;;4.00;4.00;;;;;;;;5065591;28;45393;-82
2022/04/03 13:58:17;;;;;;;;;5.75;5.75;;;;;;;;5064643;28;45361;-82
2022/04/03 14:00:42;;;;;;;;;6.75;5.75;;;;;;;;5078224;27;45494;-82
2022/04/03 14:03:08;;;;;;;;;4.75;3.25;;;;;;;;5077988;28;46126;-82
2022/04/03 14:05:33;;;;;;;;;5.50;3.50;;;;;;;;5076733;27;45244;-84
2022/04/03 14:07:58;;;;;;;;;3.00;3.00;;;;;;;;5076106;28;45675;-84
2022/04/03 14:10:24;;;;;;;;;4.25;3.25;;;;;;;;5076117;28;45464;-82
2022/04/03 14:12:49;;;;;;;;;4.25;3.50;;;;;;;;5076341;27;46211;-83
2022/04/03 14:15:14;;;;;;;;;5.25;5.25;;;;;;;;5077816;27;45389;-83
2022/04/03 14:17:39;;;;;;;;;2.50;2.50;;;;;;;;5079536;28;45408;-82
2022/04/03 14:20:05;;;;;;;;;4.50;4.50;;;;;;;;5077710;27;45377;-83
2022/04/03 14:22:30;;;;;;;;;6.00;6.00;;;;;;;;5076544;27;47059;-82
2022/04/03 14:24:56;;;;;;;;;8.00;8.00;;;;;;;;5060799;28;45508;-82
2022/04/03 14:27:21;;;;;;;;;7.25;7.25;;;;;;;;5077505;27;45318;-82